This is the latest recevied weather packets stored in our database for station/object SR9SMR. If no packets are shown the sender has not sent any weather packets the latest 1 day(s).
| Time | Temp. | Humidity | Pressure | Rain* | Wind** | Luminosity | Snow |
|---|---|---|---|---|---|---|---|
| 1778024328 | 12.22° C | 100% | 890.9 hPa | - | 10.73 m/s, 210° | - | - |
| 1778024025 | 12.22° C | 100% | 890.8 hPa | - | 10.28 m/s, 213° | - | - |
| 1778023966 | 12.22° C | 100% | 890.8 hPa | - | 10.28 m/s, 213° | - | - |
| 1778023840 | 12.22° C | 100% | 889.1 hPa | - | 11.62 m/s, 214° | - | - |
| 1778023718 | 12.22° C | 100% | 891.1 hPa | - | 10.73 m/s, 214° | - | - |
| 1778023597 | 12.78° C | 100% | 894.4 hPa | - | 10.73 m/s, 212° | - | - |
| 1778023477 | 12.78° C | 100% | 890 hPa | - | 12.07 m/s, 213° | - | - |
| 1778023417 | 12.78° C | 100% | 896.7 hPa | - | 12.52 m/s, 211° | - | - |
| 1778023356 | 12.78° C | 100% | 889.2 hPa | - | 12.52 m/s, 210° | - | - |
| 1778023235 | 12.78° C | 100% | 890.4 hPa | - | 11.18 m/s, 211° | - | - |
| 1778023115 | 12.78° C | 100% | 897 hPa | - | 10.73 m/s, 217° | - | - |
| 1778022994 | 12.78° C | 100% | 890.7 hPa | - | 11.62 m/s, 218° | - | - |
| 1778022873 | 12.78° C | 100% | 894.4 hPa | - | 11.18 m/s, 222° | - | - |
| 1778022814 | 12.78° C | 100% | 889.8 hPa | - | 10.73 m/s, 220° | - | - |
| 1778022752 | 12.78° C | 100% | 891.7 hPa | - | 11.18 m/s, 217° | - | - |
| 1778022632 | 12.78° C | 100% | 895.5 hPa | - | 11.62 m/s, 215° | - | - |
| 1778022511 | 12.78° C | 100% | 889.6 hPa | - | 12.07 m/s, 214° | - | - |
| 1778022390 | 12.78° C | 100% | 895.6 hPa | - | 10.73 m/s, 218° | - | - |
| 1778022269 | 12.78° C | 100% | 889.8 hPa | - | 9.83 m/s, 221° | - | - |
| 1778022210 | 12.78° C | 100% | 890.5 hPa | - | 10.28 m/s, 221° | - | - |
| 1778022145 | 12.78° C | 100% | 893.2 hPa | - | 10.73 m/s, 220° | - | - |
| 1778022025 | 12.78° C | 100% | 889.5 hPa | - | 12.52 m/s, 211° | - | - |
| 1778021904 | 13.33° C | 100% | 895.5 hPa | - | 13.41 m/s, 210° | - | - |
| 1778021784 | 12.78° C | 100% | 895 hPa | - | 11.62 m/s, 215° | - | - |
| 1778021663 | 13.33° C | 100% | 889.6 hPa | - | 11.62 m/s, 211° | - | - |
* Rain since midnight (hover to see other rain measurements)
** Current wind speed in m/s (hover to see current wind gust speed)